sensor_id;sensor_type;location;lat;lon;timestamp;temperature;humidity
5136;DHT22;2586;48.710;9.202;2022-09-01T00:02:14;13.70;99.90
5136;DHT22;2586;48.710;9.202;2022-09-01T00:04:41;13.60;99.90
5136;DHT22;2586;48.710;9.202;2022-09-01T00:07:09;13.60;99.90
5136;DHT22;2586;48.710;9.202;2022-09-01T00:09:35;13.50;99.90
5136;DHT22;2586;48.710;9.202;2022-09-01T00:12:03;13.60;99.90
5136;DHT22;2586;48.710;9.202;2022-09-01T00:14:32;13.70;99.90
5136;DHT22;2586;48.710;9.202;2022-09-01T00:17:01;13.70;99.90
5136;DHT22;2586;48.710;9.202;2022-09-01T00:19:28;13.70;99.90
5136;DHT22;2586;48.710;9.202;2022-09-01T00:21:54;13.70;99.90
5136;DHT22;2586;48.710;9.202;2022-09-01T00:24:21;13.60;99.90
5136;DHT22;2586;48.710;9.202;2022-09-01T00:26:47;13.60;99.90
5136;DHT22;2586;48.710;9.202;2022-09-01T00:29:13;13.60;99.90
5136;DHT22;2586;48.710;9.202;2022-09-01T00:31:40;13.50;99.90
5136;DHT22;2586;48.710;9.202;2022-09-01T00:34:06;13.50;99.90
5136;DHT22;2586;48.710;9.202;2022-09-01T00:36:32;13.60;99.90
5136;DHT22;2586;48.710;9.202;2022-09-01T00:38:58;13.60;99.90
5136;DHT22;2586;48.710;9.202;2022-09-01T00:41:27;13.80;99.90
5136;DHT22;2586;48.710;9.202;2022-09-01T00:43:55;13.80;99.90
5136;DHT22;2586;48.710;9.202;2022-09-01T00:46:31;13.80;99.90
5136;DHT22;2586;48.710;9.202;2022-09-01T00:49:08;13.90;99.90
5136;DHT22;2586;48.710;9.202;2022-09-01T00:51:37;13.90;99.90
5136;DHT22;2586;48.710;9.202;2022-09-01T00:54:04;13.90;99.90
5136;DHT22;2586;48.710;9.202;2022-09-01T00:56:31;13.90;99.90
5136;DHT22;2586;48.710;9.202;2022-09-01T00:58:59;13.80;99.90
5136;DHT22;2586;48.710;9.202;2022-09-01T01:01:25;13.70;99.90
5136;DHT22;2586;48.710;9.202;2022-09-01T01:03:50;13.70;99.90
5136;DHT22;2586;48.710;9.202;2022-09-01T01:06:16;13.60;99.90
5136;DHT22;2586;48.710;9.202;2022-09-01T01:08:46;13.60;99.90
5136;DHT22;2586;48.710;9.202;2022-09-01T01:11:21;13.50;99.90
5136;DHT22;2586;48.710;9.202;2022-09-01T01:13:58;13.40;99.90
5136;DHT22;2586;48.710;9.202;2022-09-01T01:16:26;13.40;99.90
5136;DHT22;2586;48.710;9.202;2022-09-01T01:18:53;13.20;99.90
5136;DHT22;2586;48.710;9.202;2022-09-01T01:21:25;13.20;99.90
5136;DHT22;2586;48.710;9.202;2022-09-01T01:24:32;13.20;99.90
5136;DHT22;2586;48.710;9.202;2022-09-01T01:26:59;13.40;99.90
5136;DHT22;2586;48.710;9.202;2022-09-01T01:29:27;13.40;99.90
5136;DHT22;2586;48.710;9.202;2022-09-01T01:31:56;13.40;99.90
5136;DHT22;2586;48.710;9.202;2022-09-01T01:34:22;13.40;99.90
5136;DHT22;2586;48.710;9.202;2022-09-01T01:36:49;13.40;99.90
5136;DHT22;2586;48.710;9.202;2022-09-01T01:39:18;13.50;99.90
5136;DHT22;2586;48.710;9.202;2022-09-01T01:41:45;13.50;99.90
5136;DHT22;2586;48.710;9.202;2022-09-01T01:44:15;13.50;99.90
5136;DHT22;2586;48.710;9.202;2022-09-01T01:46:44;13.50;99.90
5136;DHT22;2586;48.710;9.202;2022-09-01T01:49:11;13.50;99.90
5136;DHT22;2586;48.710;9.202;2022-09-01T01:51:44;13.50;99.90
5136;DHT22;2586;48.710;9.202;2022-09-01T01:54:09;13.50;99.90
5136;DHT22;2586;48.710;9.202;2022-09-01T01:56:35;13.50;99.90
5136;DHT22;2586;48.710;9.202;2022-09-01T01:59:04;13.50;99.90
5136;DHT22;2586;48.710;9.202;2022-09-01T02:01:31;13.50;99.90
5136;DHT22;2586;48.710;9.202;2022-09-01T02:03:58;13.50;99.90
5136;DHT22;2586;48.710;9.202;2022-09-01T02:06:25;13.50;99.90
5136;DHT22;2586;48.710;9.202;2022-09-01T02:08:53;13.50;99.90
5136;DHT22;2586;48.710;9.202;2022-09-01T02:11:25;13.50;99.90
5136;DHT22;2586;48.710;9.202;2022-09-01T02:13:52;13.50;99.90
5136;DHT22;2586;48.710;9.202;2022-09-01T02:16:22;13.40;99.90
5136;DHT22;2586;48.710;9.202;2022-09-01T02:18:48;13.40;99.90
5136;DHT22;2586;48.710;9.202;2022-09-01T02:21:16;13.40;99.90
5136;DHT22;2586;48.710;9.202;2022-09-01T02:23:58;13.40;99.90
5136;DHT22;2586;48.710;9.202;2022-09-01T02:26:35;13.50;99.90
5136;DHT22;2586;48.710;9.202;2022-09-01T02:29:06;13.50;99.90
5136;DHT22;2586;48.710;9.202;2022-09-01T02:31:36;13.40;99.90
5136;DHT22;2586;48.710;9.202;2022-09-01T02:34:05;13.40;99.90
5136;DHT22;2586;48.710;9.202;2022-09-01T02:36:36;13.50;99.90
5136;DHT22;2586;48.710;9.202;2022-09-01T02:39:15;13.40;99.90
5136;DHT22;2586;48.710;9.202;2022-09-01T02:41:41;13.40;99.90
5136;DHT22;2586;48.710;9.202;2022-09-01T02:44:07;13.40;99.90
5136;DHT22;2586;48.710;9.202;2022-09-01T02:46:41;13.40;99.90
5136;DHT22;2586;48.710;9.202;2022-09-01T02:49:19;13.40;99.90
5136;DHT22;2586;48.710;9.202;2022-09-01T02:51:53;13.40;99.90
5136;DHT22;2586;48.710;9.202;2022-09-01T02:54:26;13.20;99.90
5136;DHT22;2586;48.710;9.202;2022-09-01T02:56:53;13.00;99.90
5136;DHT22;2586;48.710;9.202;2022-09-01T02:59:21;12.90;99.90
5136;DHT22;2586;48.710;9.202;2022-09-01T03:01:50;12.80;99.90
5136;DHT22;2586;48.710;9.202;2022-09-01T03:04:17;12.80;99.90
5136;DHT22;2586;48.710;9.202;2022-09-01T03:06:43;12.80;99.90
5136;DHT22;2586;48.710;9.202;2022-09-01T03:09:14;12.80;99.90
5136;DHT22;2586;48.710;9.202;2022-09-01T03:11:45;12.90;99.90
5136;DHT22;2586;48.710;9.202;2022-09-01T03:14:11;13.00;99.90
5136;DHT22;2586;48.710;9.202;2022-09-01T03:16:37;13.00;99.90
5136;DHT22;2586;48.710;9.202;2022-09-01T03:19:05;13.00;99.90
5136;DHT22;2586;48.710;9.202;2022-09-01T03:21:35;12.90;99.90
5136;DHT22;2586;48.710;9.202;2022-09-01T03:24:02;12.80;99.90
5136;DHT22;2586;48.710;9.202;2022-09-01T03:26:29;12.80;99.90
5136;DHT22;2586;48.710;9.202;2022-09-01T03:28:56;12.70;99.90
5136;DHT22;2586;48.710;9.202;2022-09-01T03:31:22;12.80;99.90
5136;DHT22;2586;48.710;9.202;2022-09-01T03:33:51;12.80;99.90
5136;DHT22;2586;48.710;9.202;2022-09-01T03:36:18;12.80;99.90
5136;DHT22;2586;48.710;9.202;2022-09-01T03:38:48;12.90;99.90
5136;DHT22;2586;48.710;9.202;2022-09-01T03:41:17;12.80;99.90
5136;DHT22;2586;48.710;9.202;2022-09-01T03:43:44;12.70;99.90
5136;DHT22;2586;48.710;9.202;2022-09-01T03:46:10;12.50;99.90
5136;DHT22;2586;48.710;9.202;2022-09-01T03:48:36;12.40;99.90
5136;DHT22;2586;48.710;9.202;2022-09-01T03:51:03;12.30;99.90
5136;DHT22;2586;48.710;9.202;2022-09-01T03:53:32;12.30;99.90
5136;DHT22;2586;48.710;9.202;2022-09-01T03:56:01;12.40;99.90
5136;DHT22;2586;48.710;9.202;2022-09-01T03:58:29;12.40;99.90
5136;DHT22;2586;48.710;9.202;2022-09-01T04:00:56;12.50;99.90
5136;DHT22;2586;48.710;9.202;2022-09-01T04:03:25;12.50;99.90
5136;DHT22;2586;48.710;9.202;2022-09-01T04:05:52;12.50;99.90
5136;DHT22;2586;48.710;9.202;2022-09-01T04:08:20;12.50;99.90
5136;DHT22;2586;48.710;9.202;2022-09-01T04:10:52;12.50;99.90
5136;DHT22;2586;48.710;9.202;2022-09-01T04:13:24;12.40;99.90
5136;DHT22;2586;48.710;9.202;2022-09-01T04:15:51;12.50;99.90
5136;DHT22;2586;48.710;9.202;2022-09-01T04:18:18;12.50;99.90
5136;DHT22;2586;48.710;9.202;2022-09-01T04:20:50;12.50;99.90
5136;DHT22;2586;48.710;9.202;2022-09-01T04:23:31;12.40;99.90
5136;DHT22;2586;48.710;9.202;2022-09-01T04:26:08;12.40;99.90
5136;DHT22;2586;48.710;9.202;2022-09-01T04:28:40;12.40;99.90
5136;DHT22;2586;48.710;9.202;2022-09-01T04:31:09;12.40;99.90
5136;DHT22;2586;48.710;9.202;2022-09-01T04:33:39;12.40;99.90
5136;DHT22;2586;48.710;9.202;2022-09-01T04:39:03;12.50;99.90
5136;DHT22;2586;48.710;9.202;2022-09-01T04:41:33;12.50;99.90
5136;DHT22;2586;48.710;9.202;2022-09-01T04:44:00;12.50;99.90
5136;DHT22;2586;48.710;9.202;2022-09-01T04:46:30;12.50;99.90
5136;DHT22;2586;48.710;9.202;2022-09-01T04:48:57;12.50;99.90
5136;DHT22;2586;48.710;9.202;2022-09-01T04:51:24;12.60;99.90
5136;DHT22;2586;48.710;9.202;2022-09-01T04:53:55;12.60;99.90
5136;DHT22;2586;48.710;9.202;2022-09-01T04:56:23;12.70;99.90
5136;DHT22;2586;48.710;9.202;2022-09-01T04:58:50;12.80;99.90
5136;DHT22;2586;48.710;9.202;2022-09-01T05:01:20;12.80;99.90
5136;DHT22;2586;48.710;9.202;2022-09-01T05:03:48;12.80;99.90
5136;DHT22;2586;48.710;9.202;2022-09-01T05:06:27;12.80;99.90
5136;DHT22;2586;48.710;9.202;2022-09-01T05:08:54;13.00;99.90
5136;DHT22;2586;48.710;9.202;2022-09-01T05:11:24;13.10;99.90
5136;DHT22;2586;48.710;9.202;2022-09-01T05:13:50;13.10;99.90
5136;DHT22;2586;48.710;9.202;2022-09-01T05:16:22;13.10;99.90
5136;DHT22;2586;48.710;9.202;2022-09-01T05:18:51;13.20;99.90
5136;DHT22;2586;48.710;9.202;2022-09-01T05:21:22;13.20;99.90
5136;DHT22;2586;48.710;9.202;2022-09-01T05:23:53;13.30;99.90
5136;DHT22;2586;48.710;9.202;2022-09-01T05:26:22;13.30;99.90
5136;DHT22;2586;48.710;9.202;2022-09-01T05:28:51;13.40;99.90
5136;DHT22;2586;48.710;9.202;2022-09-01T05:31:25;13.30;99.90
5136;DHT22;2586;48.710;9.202;2022-09-01T05:33:52;13.20;99.90
5136;DHT22;2586;48.710;9.202;2022-09-01T05:36:21;13.30;99.90
5136;DHT22;2586;48.710;9.202;2022-09-01T05:38:49;13.40;99.90
5136;DHT22;2586;48.710;9.202;2022-09-01T05:41:17;13.40;99.90
5136;DHT22;2586;48.710;9.202;2022-09-01T05:43:45;13.40;99.90
5136;DHT22;2586;48.710;9.202;2022-09-01T05:46:18;13.50;99.90
5136;DHT22;2586;48.710;9.202;2022-09-01T05:48:46;13.60;99.90
5136;DHT22;2586;48.710;9.202;2022-09-01T05:51:15;13.70;99.90
5136;DHT22;2586;48.710;9.202;2022-09-01T05:53:54;13.80;99.90
5136;DHT22;2586;48.710;9.202;2022-09-01T05:56:21;13.80;99.90
5136;DHT22;2586;48.710;9.202;2022-09-01T05:58:48;14.00;99.90
5136;DHT22;2586;48.710;9.202;2022-09-01T06:01:17;14.10;99.90
5136;DHT22;2586;48.710;9.202;2022-09-01T06:03:53;14.20;99.90
5136;DHT22;2586;48.710;9.202;2022-09-01T06:06:26;14.30;99.90
5136;DHT22;2586;48.710;9.202;2022-09-01T06:08:54;14.40;99.90
5136;DHT22;2586;48.710;9.202;2022-09-01T06:11:25;14.60;99.90
5136;DHT22;2586;48.710;9.202;2022-09-01T06:13:52;14.60;99.90
5136;DHT22;2586;48.710;9.202;2022-09-01T06:16:21;14.80;99.90
5136;DHT22;2586;48.710;9.202;2022-09-01T06:18:49;15.00;99.90
5136;DHT22;2586;48.710;9.202;2022-09-01T06:21:17;15.00;99.90
5136;DHT22;2586;48.710;9.202;2022-09-01T06:23:43;15.10;99.90
5136;DHT22;2586;48.710;9.202;2022-09-01T06:26:36;15.10;99.90
5136;DHT22;2586;48.710;9.202;2022-09-01T06:29:09;15.30;99.90
5136;DHT22;2586;48.710;9.202;2022-09-01T06:31:39;15.50;99.90
5136;DHT22;2586;48.710;9.202;2022-09-01T06:34:08;15.50;99.90
5136;DHT22;2586;48.710;9.202;2022-09-01T06:36:37;15.50;99.90
5136;DHT22;2586;48.710;9.202;2022-09-01T06:39:05;15.60;99.90
5136;DHT22;2586;48.710;9.202;2022-09-01T06:41:31;15.60;99.90
5136;DHT22;2586;48.710;9.202;2022-09-01T06:43:57;15.80;99.90
5136;DHT22;2586;48.710;9.202;2022-09-01T06:46:26;16.40;99.90
5136;DHT22;2586;48.710;9.202;2022-09-01T06:48:53;16.70;99.90
5136;DHT22;2586;48.710;9.202;2022-09-01T06:51:20;16.90;25.70
5136;DHT22;2586;48.710;9.202;2022-09-01T06:53:48;17.20;1.00
5136;DHT22;2586;48.710;9.202;2022-09-01T06:56:18;17.20;1.00
5136;DHT22;2586;48.710;9.202;2022-09-01T06:58:45;17.40;99.90
5136;DHT22;2586;48.710;9.202;2022-09-01T07:01:13;17.50;99.90
5136;DHT22;2586;48.710;9.202;2022-09-01T07:03:41;17.70;1.00
5136;DHT22;2586;48.710;9.202;2022-09-01T07:06:08;17.90;1.00
5136;DHT22;2586;48.710;9.202;2022-09-01T07:08:35;17.90;1.00
5136;DHT22;2586;48.710;9.202;2022-09-01T07:11:16;18.00;1.00
5136;DHT22;2586;48.710;9.202;2022-09-01T07:13:42;18.00;1.00
5136;DHT22;2586;48.710;9.202;2022-09-01T07:16:16;18.00;99.90
5136;DHT22;2586;48.710;9.202;2022-09-01T07:18:45;18.00;99.90
5136;DHT22;2586;48.710;9.202;2022-09-01T07:21:11;18.00;1.00
5136;DHT22;2586;48.710;9.202;2022-09-01T07:23:36;18.10;99.90
5136;DHT22;2586;48.710;9.202;2022-09-01T07:26:05;18.00;99.90
5136;DHT22;2586;48.710;9.202;2022-09-01T07:28:32;18.10;1.00
5136;DHT22;2586;48.710;9.202;2022-09-01T07:30:58;18.30;1.00
5136;DHT22;2586;48.710;9.202;2022-09-01T07:33:25;18.30;1.00
5136;DHT22;2586;48.710;9.202;2022-09-01T07:35:52;18.20;99.90
5136;DHT22;2586;48.710;9.202;2022-09-01T07:38:20;18.00;99.90
5136;DHT22;2586;48.710;9.202;2022-09-01T07:40:47;18.20;99.90
5136;DHT22;2586;48.710;9.202;2022-09-01T07:43:22;18.20;99.90
5136;DHT22;2586;48.710;9.202;2022-09-01T07:45:54;18.20;1.00
5136;DHT22;2586;48.710;9.202;2022-09-01T07:48:21;18.30;99.90
5136;DHT22;2586;48.710;9.202;2022-09-01T07:50:50;18.40;99.90
5136;DHT22;2586;48.710;9.202;2022-09-01T07:53:20;18.60;1.00
5136;DHT22;2586;48.710;9.202;2022-09-01T07:55:48;18.60;1.00
5136;DHT22;2586;48.710;9.202;2022-09-01T07:58:17;18.70;1.00
5136;DHT22;2586;48.710;9.202;2022-09-01T08:00:44;18.70;1.00
5136;DHT22;2586;48.710;9.202;2022-09-01T08:03:12;18.50;99.90
5136;DHT22;2586;48.710;9.202;2022-09-01T08:05:39;18.70;99.90
5136;DHT22;2586;48.710;9.202;2022-09-01T08:08:05;18.80;99.90
5136;DHT22;2586;48.710;9.202;2022-09-01T08:10:31;18.90;99.90
5136;DHT22;2586;48.710;9.202;2022-09-01T08:12:57;19.00;1.00
5136;DHT22;2586;48.710;9.202;2022-09-01T08:15:23;19.10;1.00
5136;DHT22;2586;48.710;9.202;2022-09-01T08:17:49;19.00;1.00
5136;DHT22;2586;48.710;9.202;2022-09-01T08:20:14;19.00;1.00
5136;DHT22;2586;48.710;9.202;2022-09-01T08:22:40;19.00;1.00
5136;DHT22;2586;48.710;9.202;2022-09-01T08:25:07;19.30;99.90
5136;DHT22;2586;48.710;9.202;2022-09-01T08:27:36;19.20;54.20
5136;DHT22;2586;48.710;9.202;2022-09-01T08:30:05;19.30;1.00
5136;DHT22;2586;48.710;9.202;2022-09-01T08:32:35;19.10;1.00
5136;DHT22;2586;48.710;9.202;2022-09-01T08:35:01;19.00;1.00
5136;DHT22;2586;48.710;9.202;2022-09-01T08:37:29;19.00;1.00
5136;DHT22;2586;48.710;9.202;2022-09-01T08:39:55;19.20;99.90
5136;DHT22;2586;48.710;9.202;2022-09-01T08:45:20;19.20;1.00
5136;DHT22;2586;48.710;9.202;2022-09-01T08:47:46;19.30;99.90
5136;DHT22;2586;48.710;9.202;2022-09-01T08:50:13;19.20;99.90
5136;DHT22;2586;48.710;9.202;2022-09-01T08:52:45;19.20;99.90
5136;DHT22;2586;48.710;9.202;2022-09-01T08:55:38;19.40;1.00
5136;DHT22;2586;48.710;9.202;2022-09-01T08:58:03;19.40;1.00
5136;DHT22;2586;48.710;9.202;2022-09-01T09:00:32;19.40;99.90
5136;DHT22;2586;48.710;9.202;2022-09-01T09:16:31;19.70;1.00
5136;DHT22;2586;48.710;9.202;2022-09-01T09:21:55;20.10;99.90
5136;DHT22;2586;48.710;9.202;2022-09-01T09:24:28;20.30;99.90
5136;DHT22;2586;48.710;9.202;2022-09-01T09:27:16;20.60;1.00
5136;DHT22;2586;48.710;9.202;2022-09-01T09:29:44;20.50;1.00
5136;DHT22;2586;48.710;9.202;2022-09-01T09:32:09;20.40;99.90
5136;DHT22;2586;48.710;9.202;2022-09-01T09:34:37;20.30;1.00
5136;DHT22;2586;48.710;9.202;2022-09-01T09:37:27;20.20;1.00
5136;DHT22;2586;48.710;9.202;2022-09-01T09:42:29;20.20;99.90
5136;DHT22;2586;48.710;9.202;2022-09-01T09:44:54;20.50;1.00
5136;DHT22;2586;48.710;9.202;2022-09-01T09:47:42;20.80;99.90
5136;DHT22;2586;48.710;9.202;2022-09-01T09:50:25;20.90;99.90
5136;DHT22;2586;48.710;9.202;2022-09-01T09:52:54;20.90;1.00
5136;DHT22;2586;48.710;9.202;2022-09-01T09:55:34;20.60;1.00
5136;DHT22;2586;48.710;9.202;2022-09-01T09:58:07;20.50;99.90
5136;DHT22;2586;48.710;9.202;2022-09-01T10:00:34;20.50;99.90
5136;DHT22;2586;48.710;9.202;2022-09-01T10:03:08;20.30;99.90
5136;DHT22;2586;48.710;9.202;2022-09-01T10:08:14;20.40;1.00
5136;DHT22;2586;48.710;9.202;2022-09-01T10:11:03;20.50;99.90
5136;DHT22;2586;48.710;9.202;2022-09-01T10:13:30;20.60;1.00
5136;DHT22;2586;48.710;9.202;2022-09-01T10:16:00;20.40;99.90
5136;DHT22;2586;48.710;9.202;2022-09-01T10:18:31;20.50;99.90
5136;DHT22;2586;48.710;9.202;2022-09-01T10:21:09;20.60;1.00
5136;DHT22;2586;48.710;9.202;2022-09-01T10:23:36;20.70;1.00
5136;DHT22;2586;48.710;9.202;2022-09-01T10:26:26;21.20;99.90
5136;DHT22;2586;48.710;9.202;2022-09-01T10:28:58;21.40;1.00
5136;DHT22;2586;48.710;9.202;2022-09-01T10:31:26;21.30;1.00
5136;DHT22;2586;48.710;9.202;2022-09-01T10:33:52;21.30;94.20
5136;DHT22;2586;48.710;9.202;2022-09-01T10:36:18;21.20;99.90
5136;DHT22;2586;48.710;9.202;2022-09-01T10:38:45;21.40;99.90
5136;DHT22;2586;48.710;9.202;2022-09-01T10:44:23;21.50;99.90
5136;DHT22;2586;48.710;9.202;2022-09-01T10:46:50;21.80;99.90
5136;DHT22;2586;48.710;9.202;2022-09-01T10:50:08;22.90;1.00
5136;DHT22;2586;48.710;9.202;2022-09-01T10:52:06;22.80;99.90
5136;DHT22;2586;48.710;9.202;2022-09-01T10:57:20;22.40;1.00
5136;DHT22;2586;48.710;9.202;2022-09-01T10:59:50;22.30;99.90
5136;DHT22;2586;48.710;9.202;2022-09-01T11:02:18;22.30;99.90
5136;DHT22;2586;48.710;9.202;2022-09-01T11:10:32;22.10;99.90
5136;DHT22;2586;48.710;9.202;2022-09-01T11:15:37;23.40;1.00
5136;DHT22;2586;48.710;9.202;2022-09-01T11:18:13;24.40;99.90
5136;DHT22;2586;48.710;9.202;2022-09-01T11:20:40;23.70;99.90
5136;DHT22;2586;48.710;9.202;2022-09-01T11:25:54;22.70;99.90
5136;DHT22;2586;48.710;9.202;2022-09-01T11:36:42;25.00;99.90
5136;DHT22;2586;48.710;9.202;2022-09-01T11:42:11;25.60;74.50
5136;DHT22;2586;48.710;9.202;2022-09-01T11:47:30;25.70;11.70
5136;DHT22;2586;48.710;9.202;2022-09-01T11:50:02;26.10;14.50
5136;DHT22;2586;48.710;9.202;2022-09-01T11:52:33;26.80;25.70
5136;DHT22;2586;48.710;9.202;2022-09-01T11:55:00;27.10;1.00
5136;DHT22;2586;48.710;9.202;2022-09-01T11:57:38;26.00;3.90
5136;DHT22;2586;48.710;9.202;2022-09-01T12:00:08;25.60;21.50
5136;DHT22;2586;48.710;9.202;2022-09-01T12:02:35;25.70;19.00
5136;DHT22;2586;48.710;9.202;2022-09-01T12:07:51;24.60;99.90
5136;DHT22;2586;48.710;9.202;2022-09-01T12:12:45;26.10;54.90
5136;DHT22;2586;48.710;9.202;2022-09-01T12:15:20;26.80;24.90
5136;DHT22;2586;48.710;9.202;2022-09-01T12:17:46;26.40;9.40
5136;DHT22;2586;48.710;9.202;2022-09-01T12:20:30;26.50;13.90
5136;DHT22;2586;48.710;9.202;2022-09-01T12:22:58;26.90;1.00
5136;DHT22;2586;48.710;9.202;2022-09-01T12:25:27;27.10;1.00
5136;DHT22;2586;48.710;9.202;2022-09-01T12:27:53;27.50;1.00
5136;DHT22;2586;48.710;9.202;2022-09-01T12:30:20;27.70;1.00
5136;DHT22;2586;48.710;9.202;2022-09-01T12:32:46;28.20;1.00
5136;DHT22;2586;48.710;9.202;2022-09-01T12:35:22;28.20;1.00
5136;DHT22;2586;48.710;9.202;2022-09-01T12:37:48;28.00;1.00
5136;DHT22;2586;48.710;9.202;2022-09-01T12:40:40;28.30;1.00
5136;DHT22;2586;48.710;9.202;2022-09-01T12:43:06;29.10;1.00
5136;DHT22;2586;48.710;9.202;2022-09-01T12:48:05;28.40;1.00
5136;DHT22;2586;48.710;9.202;2022-09-01T12:50:34;27.10;1.00
5136;DHT22;2586;48.710;9.202;2022-09-01T12:53:01;26.90;1.00
5136;DHT22;2586;48.710;9.202;2022-09-01T12:55:33;27.50;1.00
5136;DHT22;2586;48.710;9.202;2022-09-01T12:58:02;28.40;1.00
5136;DHT22;2586;48.710;9.202;2022-09-01T13:00:29;29.40;1.00
5136;DHT22;2586;48.710;9.202;2022-09-01T13:05:40;28.10;1.00
5136;DHT22;2586;48.710;9.202;2022-09-01T13:08:11;27.30;1.00
5136;DHT22;2586;48.710;9.202;2022-09-01T13:10:48;26.90;1.00
5136;DHT22;2586;48.710;9.202;2022-09-01T13:13:16;27.10;1.00
5136;DHT22;2586;48.710;9.202;2022-09-01T13:15:44;26.80;1.00
5136;DHT22;2586;48.710;9.202;2022-09-01T13:18:12;26.70;1.00
5136;DHT22;2586;48.710;9.202;2022-09-01T13:20:38;26.20;1.00
5136;DHT22;2586;48.710;9.202;2022-09-01T13:23:06;26.00;1.00
5136;DHT22;2586;48.710;9.202;2022-09-01T13:25:32;25.70;1.00
5136;DHT22;2586;48.710;9.202;2022-09-01T13:27:58;25.50;1.00
5136;DHT22;2586;48.710;9.202;2022-09-01T13:30:28;25.50;1.00
5136;DHT22;2586;48.710;9.202;2022-09-01T13:32:54;25.60;25.10
5136;DHT22;2586;48.710;9.202;2022-09-01T13:35:21;25.70;1.00
5136;DHT22;2586;48.710;9.202;2022-09-01T13:37:47;25.40;1.10
5136;DHT22;2586;48.710;9.202;2022-09-01T13:40:16;25.20;1.00
5136;DHT22;2586;48.710;9.202;2022-09-01T13:42:42;25.20;1.00
5136;DHT22;2586;48.710;9.202;2022-09-01T13:45:09;25.60;2.40
5136;DHT22;2586;48.710;9.202;2022-09-01T13:47:40;25.60;1.20
5136;DHT22;2586;48.710;9.202;2022-09-01T13:50:06;26.00;1.00
5136;DHT22;2586;48.710;9.202;2022-09-01T13:52:33;26.20;1.00
5136;DHT22;2586;48.710;9.202;2022-09-01T13:54:58;27.30;1.00
5136;DHT22;2586;48.710;9.202;2022-09-01T13:57:26;28.40;1.00
5136;DHT22;2586;48.710;9.202;2022-09-01T13:59:51;29.30;1.00
5136;DHT22;2586;48.710;9.202;2022-09-01T14:02:17;29.70;1.00
5136;DHT22;2586;48.710;9.202;2022-09-01T14:04:43;30.20;1.00
5136;DHT22;2586;48.710;9.202;2022-09-01T14:07:08;30.40;1.00
5136;DHT22;2586;48.710;9.202;2022-09-01T14:09:34;30.10;1.00
5136;DHT22;2586;48.710;9.202;2022-09-01T14:12:00;30.10;1.00
5136;DHT22;2586;48.710;9.202;2022-09-01T14:14:25;30.30;1.00
5136;DHT22;2586;48.710;9.202;2022-09-01T14:16:51;29.70;1.00
5136;DHT22;2586;48.710;9.202;2022-09-01T14:19:17;29.10;1.00
5136;DHT22;2586;48.710;9.202;2022-09-01T14:21:42;28.20;1.00
5136;DHT22;2586;48.710;9.202;2022-09-01T14:24:08;27.40;1.00
5136;DHT22;2586;48.710;9.202;2022-09-01T14:26:34;27.30;1.00
5136;DHT22;2586;48.710;9.202;2022-09-01T14:29:00;26.60;1.00
5136;DHT22;2586;48.710;9.202;2022-09-01T14:31:27;26.90;1.00
5136;DHT22;2586;48.710;9.202;2022-09-01T14:33:54;27.30;1.00
5136;DHT22;2586;48.710;9.202;2022-09-01T14:36:22;27.40;1.00
5136;DHT22;2586;48.710;9.202;2022-09-01T14:38:48;26.80;1.00
5136;DHT22;2586;48.710;9.202;2022-09-01T14:41:19;27.00;1.00
5136;DHT22;2586;48.710;9.202;2022-09-01T14:43:47;27.80;1.00
5136;DHT22;2586;48.710;9.202;2022-09-01T14:46:14;28.40;1.00
5136;DHT22;2586;48.710;9.202;2022-09-01T14:48:40;29.50;1.00
5136;DHT22;2586;48.710;9.202;2022-09-01T14:51:07;29.40;1.00
5136;DHT22;2586;48.710;9.202;2022-09-01T14:53:34;30.10;1.00
5136;DHT22;2586;48.710;9.202;2022-09-01T14:56:00;30.60;1.00
5136;DHT22;2586;48.710;9.202;2022-09-01T14:58:27;30.60;1.00
5136;DHT22;2586;48.710;9.202;2022-09-01T15:00:56;30.50;1.00
5136;DHT22;2586;48.710;9.202;2022-09-01T15:03:24;30.30;1.00
5136;DHT22;2586;48.710;9.202;2022-09-01T15:05:54;30.30;1.00
5136;DHT22;2586;48.710;9.202;2022-09-01T15:08:21;30.60;1.00
5136;DHT22;2586;48.710;9.202;2022-09-01T15:10:48;30.90;1.00
5136;DHT22;2586;48.710;9.202;2022-09-01T15:13:13;31.20;1.00
5136;DHT22;2586;48.710;9.202;2022-09-01T15:15:39;31.40;1.00
5136;DHT22;2586;48.710;9.202;2022-09-01T15:18:05;31.80;1.00
5136;DHT22;2586;48.710;9.202;2022-09-01T15:20:31;31.40;1.00
5136;DHT22;2586;48.710;9.202;2022-09-01T15:23:15;31.50;1.00
5136;DHT22;2586;48.710;9.202;2022-09-01T15:25:41;30.90;1.00
5136;DHT22;2586;48.710;9.202;2022-09-01T15:28:07;31.00;1.00
5136;DHT22;2586;48.710;9.202;2022-09-01T15:30:34;31.20;1.00
5136;DHT22;2586;48.710;9.202;2022-09-01T15:33:00;31.50;1.00
5136;DHT22;2586;48.710;9.202;2022-09-01T15:35:27;30.90;1.00
5136;DHT22;2586;48.710;9.202;2022-09-01T15:37:53;30.90;1.00
5136;DHT22;2586;48.710;9.202;2022-09-01T15:40:22;31.00;1.00
5136;DHT22;2586;48.710;9.202;2022-09-01T15:42:48;30.60;1.00
5136;DHT22;2586;48.710;9.202;2022-09-01T15:45:16;30.60;1.00
5136;DHT22;2586;48.710;9.202;2022-09-01T15:47:42;30.10;1.00
5136;DHT22;2586;48.710;9.202;2022-09-01T15:50:10;29.60;1.00
5136;DHT22;2586;48.710;9.202;2022-09-01T15:55:25;30.20;1.00
5136;DHT22;2586;48.710;9.202;2022-09-01T15:57:51;30.50;1.00
5136;DHT22;2586;48.710;9.202;2022-09-01T16:00:18;30.60;1.00
5136;DHT22;2586;48.710;9.202;2022-09-01T16:02:44;30.60;1.00
5136;DHT22;2586;48.710;9.202;2022-09-01T16:05:10;30.30;1.00
5136;DHT22;2586;48.710;9.202;2022-09-01T16:07:36;30.10;1.00
5136;DHT22;2586;48.710;9.202;2022-09-01T16:10:03;30.10;1.00
5136;DHT22;2586;48.710;9.202;2022-09-01T16:12:30;30.10;1.00
5136;DHT22;2586;48.710;9.202;2022-09-01T16:14:57;30.20;1.00
5136;DHT22;2586;48.710;9.202;2022-09-01T16:20:24;29.90;1.00
5136;DHT22;2586;48.710;9.202;2022-09-01T16:25:32;29.90;1.00
5136;DHT22;2586;48.710;9.202;2022-09-01T16:28:06;30.10;1.00
5136;DHT22;2586;48.710;9.202;2022-09-01T16:30:34;29.70;1.00
5136;DHT22;2586;48.710;9.202;2022-09-01T16:33:02;29.60;1.00
5136;DHT22;2586;48.710;9.202;2022-09-01T16:35:43;28.50;1.00
5136;DHT22;2586;48.710;9.202;2022-09-01T16:40:53;27.40;1.00
5136;DHT22;2586;48.710;9.202;2022-09-01T16:43:49;26.40;1.00
5136;DHT22;2586;48.710;9.202;2022-09-01T16:46:32;25.90;1.00
5136;DHT22;2586;48.710;9.202;2022-09-01T16:49:57;25.40;1.00
5136;DHT22;2586;48.710;9.202;2022-09-01T16:52:21;24.90;1.00
5136;DHT22;2586;48.710;9.202;2022-09-01T16:57:59;24.30;1.00
5136;DHT22;2586;48.710;9.202;2022-09-01T17:04:14;23.70;1.00
5136;DHT22;2586;48.710;9.202;2022-09-01T17:11:54;22.80;81.20
5136;DHT22;2586;48.710;9.202;2022-09-01T17:14:44;22.60;50.60
5136;DHT22;2586;48.710;9.202;2022-09-01T17:17:18;22.40;93.40
5136;DHT22;2586;48.710;9.202;2022-09-01T17:19:44;22.20;97.30
5136;DHT22;2586;48.710;9.202;2022-09-01T17:22:16;21.90;99.90
5136;DHT22;2586;48.710;9.202;2022-09-01T17:24:56;21.70;99.90
5136;DHT22;2586;48.710;9.202;2022-09-01T17:27:35;21.60;99.90
5136;DHT22;2586;48.710;9.202;2022-09-01T17:30:04;21.50;99.90
5136;DHT22;2586;48.710;9.202;2022-09-01T17:33:05;21.40;99.90
5136;DHT22;2586;48.710;9.202;2022-09-01T17:35:53;21.30;99.90
5136;DHT22;2586;48.710;9.202;2022-09-01T17:47:20;20.60;99.90
5136;DHT22;2586;48.710;9.202;2022-09-01T17:58:01;20.30;99.90
5136;DHT22;2586;48.710;9.202;2022-09-01T18:00:38;20.20;99.90
5136;DHT22;2586;48.710;9.202;2022-09-01T18:03:22;20.10;99.90
5136;DHT22;2586;48.710;9.202;2022-09-01T18:05:59;20.00;1.00
5136;DHT22;2586;48.710;9.202;2022-09-01T18:08:40;19.90;99.90
5136;DHT22;2586;48.710;9.202;2022-09-01T18:16:11;19.70;1.00
5136;DHT22;2586;48.710;9.202;2022-09-01T18:18:40;19.70;1.00